createdAt,value
2023-03-04T00:00:45.882Z,-0.40
2023-03-04T00:03:21.526Z,-0.49
2023-03-04T00:05:49.604Z,-0.57
2023-03-04T00:08:17.371Z,-0.61
2023-03-04T00:10:45.775Z,-0.63
2023-03-04T00:13:17.069Z,-0.64
2023-03-04T00:15:46.608Z,-0.66
2023-03-04T00:18:15.150Z,-0.72
2023-03-04T00:20:45.102Z,-0.79
2023-03-04T00:23:13.100Z,-0.84
2023-03-04T00:25:43.489Z,-0.91
2023-03-04T00:28:11.380Z,-0.66
2023-03-04T00:30:40.493Z,0.94
2023-03-04T00:33:08.128Z,2.57
2023-03-04T00:35:37.184Z,3.73
2023-03-04T00:38:09.370Z,3.69
2023-03-04T00:40:39.254Z,2.61
2023-03-04T00:43:08.193Z,1.68
2023-03-04T00:45:36.574Z,1.14
2023-03-04T00:48:07.182Z,0.73
2023-03-04T00:50:35.590Z,0.38
2023-03-04T00:53:04.365Z,0.08
2023-03-04T00:55:32.361Z,-0.17
2023-03-04T00:58:00.294Z,-0.37
2023-03-04T01:00:30.894Z,-0.54
2023-03-04T01:02:59.985Z,-0.68
2023-03-04T01:05:27.689Z,-0.79
2023-03-04T01:07:56.515Z,-0.86
2023-03-04T01:10:26.545Z,-0.92
2023-03-04T01:12:54.155Z,-0.99
2023-03-04T01:15:21.872Z,-1.03
2023-03-04T01:17:49.867Z,-1.04
2023-03-04T01:20:18.067Z,-1.09
2023-03-04T01:22:47.759Z,-1.12
2023-03-04T01:25:17.642Z,-1.15
2023-03-04T01:27:45.700Z,-1.18
2023-03-04T01:30:16.355Z,-1.19
2023-03-04T01:32:44.024Z,-1.20
2023-03-04T01:35:12.619Z,-1.21
2023-03-04T01:37:40.603Z,-1.24
2023-03-04T01:40:09.885Z,-1.24
2023-03-04T01:42:39.328Z,-1.24
2023-03-04T01:45:07.973Z,-1.24
2023-03-04T01:47:37.912Z,-1.16
2023-03-04T01:50:16.027Z,0.07
2023-03-04T01:52:43.681Z,2.08
2023-03-04T01:55:17.040Z,3.50
2023-03-04T01:57:46.683Z,4.19
2023-03-04T02:00:24.976Z,3.49
2023-03-04T02:02:58.063Z,2.41
2023-03-04T02:05:27.291Z,1.66
2023-03-04T02:07:56.710Z,1.13
2023-03-04T02:10:25.689Z,0.72
2023-03-04T02:12:54.087Z,0.40
2023-03-04T02:15:23.568Z,0.12
2023-03-04T02:17:51.531Z,-0.10
2023-03-04T02:20:31.646Z,-0.30
2023-03-04T02:23:26.747Z,-0.50
2023-03-04T02:26:03.859Z,-0.64
2023-03-04T02:28:31.630Z,-0.71
2023-03-04T02:31:00.366Z,-0.79
2023-03-04T02:33:28.225Z,-0.89
2023-03-04T02:35:55.987Z,-0.96
2023-03-04T02:38:24.599Z,-1.02
2023-03-04T02:40:57.771Z,-1.07
2023-03-04T02:43:27.808Z,-1.11
2023-03-04T02:45:56.222Z,-1.14
2023-03-04T02:48:26.616Z,-1.19
2023-03-04T02:50:54.961Z,-1.23
2023-03-04T02:53:23.081Z,-1.29
2023-03-04T02:55:51.111Z,-1.36
2023-03-04T02:58:18.760Z,-1.41
2023-03-04T03:00:46.448Z,-1.45
2023-03-04T03:03:14.171Z,-1.47
2023-03-04T03:05:42.153Z,-1.52
2023-03-04T03:08:09.849Z,-1.57
2023-03-04T03:10:38.864Z,-1.61
2023-03-04T03:13:06.484Z,-1.65
2023-03-04T03:15:34.187Z,-1.71
2023-03-04T03:18:03.664Z,-1.76
2023-03-04T03:20:33.481Z,-1.81
2023-03-04T03:23:01.825Z,-1.84
2023-03-04T03:25:29.434Z,-1.87
2023-03-04T03:27:57.153Z,-1.92
2023-03-04T03:30:26.419Z,-1.99
2023-03-04T03:32:54.410Z,-2.04
2023-03-04T03:35:22.448Z,-2.07
2023-03-04T03:37:50.250Z,-2.11
2023-03-04T03:40:18.632Z,-2.14
2023-03-04T03:42:46.358Z,-2.18
2023-03-04T03:45:14.194Z,-2.22
2023-03-04T03:47:43.018Z,-2.23
2023-03-04T03:50:13.591Z,-2.25
2023-03-04T03:52:41.553Z,-2.28
2023-03-04T03:55:11.360Z,-2.30
2023-03-04T03:57:39.186Z,-2.32
2023-03-04T04:00:10.272Z,-2.34
2023-03-04T04:02:38.196Z,-2.34
2023-03-04T04:05:08.692Z,-2.33
2023-03-04T04:07:37.026Z,-2.33
2023-03-04T04:10:06.437Z,-2.34
2023-03-04T04:12:39.571Z,-2.38
2023-03-04T04:15:13.474Z,-2.42
2023-03-04T04:17:41.597Z,-2.45
2023-03-04T04:20:11.714Z,-2.46
2023-03-04T04:22:40.099Z,-2.44
2023-03-04T04:25:10.862Z,-2.42
2023-03-04T04:27:38.540Z,-2.43
2023-03-04T04:30:08.863Z,-2.49
2023-03-04T04:32:36.994Z,-2.54
2023-03-04T04:35:05.370Z,-2.60
2023-03-04T04:37:34.583Z,-2.65
2023-03-04T04:40:04.102Z,-2.70
2023-03-04T04:42:31.933Z,-2.73
2023-03-04T04:44:59.636Z,-2.75
2023-03-04T04:47:27.563Z,-2.78
2023-03-04T04:49:56.527Z,-2.79
2023-03-04T04:52:24.300Z,-1.46
2023-03-04T04:54:52.333Z,0.52
2023-03-04T04:57:20.040Z,1.80
2023-03-04T04:59:48.136Z,2.72
2023-03-04T05:02:16.360Z,2.39
2023-03-04T05:04:44.779Z,1.29
2023-03-04T05:07:13.174Z,0.44
2023-03-04T05:09:41.104Z,-0.20
2023-03-04T05:12:08.898Z,-0.69
2023-03-04T05:14:36.836Z,-1.09
2023-03-04T05:17:04.586Z,-1.44
2023-03-04T05:19:33.764Z,-1.72
2023-03-04T05:22:01.625Z,-1.99
2023-03-04T05:24:29.955Z,-2.19
2023-03-04T05:26:57.698Z,-2.37
2023-03-04T05:29:25.367Z,-2.49
2023-03-04T05:31:53.648Z,-2.59
2023-03-04T05:34:21.531Z,-2.69
2023-03-04T05:36:49.307Z,-2.76
2023-03-04T05:39:17.689Z,-2.81
2023-03-04T05:41:46.109Z,-2.86
2023-03-04T05:44:13.739Z,-2.92
2023-03-04T05:46:41.423Z,-2.98
2023-03-04T05:49:09.079Z,-3.10
2023-03-04T05:51:36.705Z,-3.19
2023-03-04T05:54:04.385Z,-3.29
2023-03-04T05:56:35.317Z,-3.37
2023-03-04T05:59:02.993Z,-3.42
2023-03-04T06:01:31.726Z,-3.47
2023-03-04T06:04:00.701Z,-3.48
2023-03-04T06:06:28.952Z,-3.49
2023-03-04T06:08:56.836Z,-3.52
2023-03-04T06:11:24.473Z,-3.55
2023-03-04T06:13:53.811Z,-3.59
2023-03-04T06:16:21.690Z,-3.64
2023-03-04T06:18:49.468Z,-3.67
2023-03-04T06:21:18.397Z,-3.69
2023-03-04T06:23:48.058Z,-3.70
2023-03-04T06:26:15.959Z,-3.71
2023-03-04T06:28:44.726Z,-3.71
2023-03-04T06:31:17.083Z,-3.71
2023-03-04T06:33:46.297Z,-3.74
2023-03-04T06:36:14.426Z,-3.30
2023-03-04T06:38:42.191Z,-1.72
2023-03-04T06:41:13.309Z,-0.23
2023-03-04T06:43:40.998Z,0.97
2023-03-04T06:46:10.029Z,1.23
2023-03-04T06:48:38.245Z,0.35
2023-03-04T06:51:11.469Z,-0.37
2023-03-04T06:53:40.568Z,-0.90
2023-03-04T06:56:10.197Z,-1.30
2023-03-04T06:58:38.602Z,-1.63
2023-03-04T07:01:14.795Z,-1.88
2023-03-04T07:03:43.302Z,-2.06
2023-03-04T07:06:13.103Z,-2.18
2023-03-04T07:08:41.914Z,-2.29
2023-03-04T07:11:10.141Z,-2.37
2023-03-04T07:13:38.534Z,-2.43
2023-03-04T07:16:09.552Z,-2.47
2023-03-04T07:18:39.063Z,-2.50
2023-03-04T07:21:08.085Z,-2.54
2023-03-04T07:23:40.765Z,-2.56
2023-03-04T07:26:08.398Z,-2.56
2023-03-04T07:28:37.247Z,-2.54
2023-03-04T07:31:14.047Z,-2.52
2023-03-04T07:33:42.405Z,-2.46
2023-03-04T07:36:10.195Z,-2.38
2023-03-04T07:38:38.597Z,-2.28
2023-03-04T07:41:08.781Z,-2.19
2023-03-04T07:46:10.369Z,-1.99
2023-03-04T07:48:38.919Z,-1.91
2023-03-04T07:51:16.972Z,-1.81
2023-03-04T07:53:46.699Z,-1.68
2023-03-04T07:56:18.741Z,-1.56
2023-03-04T07:58:47.569Z,-1.45
2023-03-04T08:01:21.540Z,-1.37
2023-03-04T08:03:51.894Z,-1.27
2023-03-04T08:06:22.529Z,-1.17
2023-03-04T08:08:55.542Z,-1.08
2023-03-04T08:11:23.745Z,-0.97
2023-03-04T08:13:54.608Z,-0.82
2023-03-04T08:16:23.886Z,-0.65
2023-03-04T08:18:55.699Z,-0.51
2023-03-04T08:21:27.750Z,-0.41
2023-03-04T08:23:59.355Z,-0.28
2023-03-04T08:26:31.548Z,-0.13
2023-03-04T08:29:02.791Z,-0.03
2023-03-04T08:31:34.993Z,0.11
2023-03-04T08:34:04.376Z,0.24
2023-03-04T08:36:34.253Z,0.35
2023-03-04T08:39:03.970Z,0.42
2023-03-04T08:41:32.110Z,0.52
2023-03-04T08:44:01.403Z,0.58
2023-03-04T08:46:31.631Z,0.65
2023-03-04T08:49:00.047Z,0.69
2023-03-04T08:51:28.514Z,0.78
2023-03-04T08:53:58.923Z,0.83
2023-03-04T08:56:26.517Z,0.90
2023-03-04T09:00:51.665Z,1.09
2023-03-04T09:03:21.459Z,1.21
2023-03-04T09:05:49.613Z,1.31
2023-03-04T09:08:18.050Z,1.37
2023-03-04T09:10:49.499Z,1.44
2023-03-04T09:13:26.428Z,1.53
2023-03-04T09:15:54.982Z,1.61
2023-03-04T09:18:25.285Z,1.67
2023-03-04T09:20:53.871Z,1.72
2023-03-04T09:23:26.810Z,1.82
2023-03-04T09:25:57.816Z,1.92
2023-03-04T09:28:26.152Z,2.00
2023-03-04T09:30:54.048Z,2.12
2023-03-04T09:33:23.934Z,2.20
2023-03-04T09:35:54.030Z,2.27
2023-03-04T09:38:29.977Z,2.35
2023-03-04T09:41:04.570Z,2.46
2023-03-04T09:43:34.588Z,2.56
2023-03-04T09:46:19.094Z,2.62
2023-03-04T09:48:54.791Z,2.70
2023-03-04T09:51:42.117Z,2.79
2023-03-04T09:54:37.231Z,2.85
2023-03-04T09:57:30.977Z,2.96
2023-03-04T10:00:33.003Z,3.12
2023-03-04T10:03:15.395Z,3.21
2023-03-04T10:06:06.501Z,3.22
2023-03-04T10:08:56.181Z,3.23
2023-03-04T10:11:59.728Z,3.23
2023-03-04T10:14:53.063Z,3.23
2023-03-04T10:17:38.350Z,3.27
2023-03-04T10:20:20.430Z,3.35
2023-03-04T10:22:58.367Z,3.40
2023-03-04T10:25:33.388Z,3.38
2023-03-04T10:28:06.266Z,3.42
2023-03-04T10:30:46.448Z,3.41
2023-03-04T10:33:21.334Z,3.34
2023-03-04T10:35:56.279Z,3.31
2023-03-04T10:38:26.528Z,3.35
2023-03-04T10:40:54.224Z,3.40
2023-03-04T10:43:23.465Z,3.43
2023-03-04T10:45:57.769Z,3.43
2023-03-04T10:48:30.932Z,3.37
2023-03-04T10:51:19.825Z,3.30
2023-03-04T10:53:52.688Z,3.27
2023-03-04T10:56:40.066Z,3.27
2023-03-04T11:00:09.276Z,3.28
2023-03-04T11:02:37.458Z,3.31
2023-03-04T11:05:19.588Z,3.33
2023-03-04T11:07:57.500Z,3.29
2023-03-04T11:10:39.253Z,3.29
2023-03-04T11:13:23.544Z,3.31
2023-03-04T11:16:03.750Z,3.33
2023-03-04T11:18:48.206Z,3.34
2023-03-04T11:21:21.770Z,3.37
2023-03-04T11:24:04.800Z,3.37
2023-03-04T11:26:43.173Z,3.38
2023-03-04T11:29:24.087Z,3.41
2023-03-04T11:32:09.307Z,3.42
2023-03-04T11:34:53.843Z,3.42
2023-03-04T11:37:31.728Z,3.40
2023-03-04T11:40:43.781Z,3.39
2023-03-04T11:43:43.485Z,3.39
2023-03-04T11:46:48.251Z,3.41
2023-03-04T11:49:46.179Z,3.41
2023-03-04T11:52:36.428Z,3.41
2023-03-04T11:55:13.949Z,3.44
2023-03-04T11:58:18.750Z,3.39
2023-03-04T12:01:07.532Z,3.35
2023-03-04T12:03:54.188Z,3.28
2023-03-04T12:06:59.373Z,3.24
2023-03-04T12:10:04.273Z,3.24
2023-03-04T12:13:10.026Z,3.25
2023-03-04T12:16:04.727Z,3.27
2023-03-04T12:18:58.082Z,3.32
2023-03-04T12:22:03.850Z,3.40
2023-03-04T12:24:49.106Z,3.51
2023-03-04T12:27:32.240Z,3.66
2023-03-04T12:31:04.184Z,3.77
2023-03-04T12:34:21.326Z,3.89
2023-03-04T12:38:02.126Z,3.98
2023-03-04T12:40:51.352Z,4.14
2023-03-04T12:44:17.307Z,4.19
2023-03-04T12:46:48.302Z,4.22
2023-03-04T12:49:50.797Z,4.26
2023-03-04T12:52:54.212Z,4.36
2023-03-04T12:55:43.005Z,4.41
2023-03-04T12:58:25.222Z,4.48
2023-03-04T13:01:08.928Z,4.60
2023-03-04T13:04:28.962Z,4.70
2023-03-04T13:07:44.470Z,4.81
2023-03-04T13:10:26.335Z,4.87
2023-03-04T13:12:57.124Z,4.85
2023-03-04T13:15:24.987Z,4.78
2023-03-04T13:18:25.483Z,4.69
2023-03-04T13:21:11.766Z,4.53
2023-03-04T13:23:41.047Z,4.39
2023-03-04T13:26:28.511Z,4.26
2023-03-04T13:29:13.495Z,4.19
2023-03-04T13:32:11.430Z,4.15
2023-03-04T13:34:49.819Z,4.07
2023-03-04T13:37:37.566Z,4.03
2023-03-04T13:40:20.718Z,4.06
2023-03-04T13:42:49.310Z,4.04
2023-03-04T13:45:40.746Z,4.03
2023-03-04T13:48:54.592Z,4.01
2023-03-04T13:51:46.147Z,4.02
2023-03-04T13:54:20.008Z,3.90
2023-03-04T13:57:09.107Z,3.85
2023-03-04T13:59:48.427Z,3.82
2023-03-04T14:02:25.615Z,3.79
2023-03-04T14:05:01.653Z,3.77
2023-03-04T14:07:35.576Z,3.73
2023-03-04T14:10:25.299Z,3.75
2023-03-04T14:12:57.454Z,3.73
2023-03-04T14:15:36.094Z,3.74
2023-03-04T14:18:06.521Z,3.75
2023-03-04T14:20:41.958Z,3.68
2023-03-04T14:23:36.437Z,3.64
2023-03-04T14:26:17.576Z,3.59
2023-03-04T14:28:53.604Z,3.60
2023-03-04T14:31:28.498Z,3.57
2023-03-04T14:34:06.341Z,3.54
2023-03-04T14:36:37.473Z,3.55
2023-03-04T14:39:07.404Z,3.57
2023-03-04T14:41:40.012Z,3.56
2023-03-04T14:44:40.245Z,3.60
2023-03-04T14:47:24.767Z,3.58
2023-03-04T14:49:55.484Z,3.59
2023-03-04T14:52:43.204Z,3.58
2023-03-04T14:55:26.516Z,3.57
2023-03-04T14:58:11.191Z,3.56
2023-03-04T15:00:43.488Z,3.55
2023-03-04T15:03:30.421Z,3.50
2023-03-04T15:06:23.391Z,3.44
2023-03-04T15:09:06.351Z,3.37
2023-03-04T15:11:49.670Z,3.32
2023-03-04T15:14:52.097Z,3.24
2023-03-04T15:17:39.719Z,3.20
2023-03-04T15:20:07.495Z,3.14
2023-03-04T15:22:45.234Z,3.11
2023-03-04T15:25:20.356Z,3.08
2023-03-04T15:27:51.458Z,3.04
2023-03-04T15:30:31.508Z,3.06
2023-03-04T15:33:00.905Z,3.07
2023-03-04T15:35:33.397Z,3.04
2023-03-04T15:38:02.104Z,3.00
2023-03-04T15:40:35.732Z,2.96
2023-03-04T15:43:07.134Z,2.94
2023-03-04T15:45:40.063Z,2.87
2023-03-04T15:48:12.866Z,2.83
2023-03-04T15:50:54.429Z,2.80
2023-03-04T15:53:35.989Z,2.76
2023-03-04T15:56:11.371Z,2.74
2023-03-04T15:58:41.122Z,2.75
2023-03-04T16:01:16.627Z,2.72
2023-03-04T16:03:44.948Z,2.68
2023-03-04T16:06:18.733Z,2.64
2023-03-04T16:08:50.333Z,2.63
2023-03-04T16:11:26.018Z,2.60
2023-03-04T16:13:54.580Z,2.58
2023-03-04T16:16:22.645Z,2.56
2023-03-04T16:18:51.603Z,2.52
2023-03-04T16:21:24.514Z,2.50
2023-03-04T16:23:54.673Z,2.47
2023-03-04T16:26:27.356Z,2.44
2023-03-04T16:28:55.030Z,2.42
2023-03-04T16:31:24.290Z,2.37
2023-03-04T16:33:54.278Z,2.34
2023-03-04T16:36:26.085Z,2.32
2023-03-04T16:39:11.072Z,2.20
2023-03-04T16:41:40.016Z,2.07
2023-03-04T16:44:14.709Z,1.99
2023-03-04T16:46:42.493Z,1.95
2023-03-04T16:49:10.555Z,1.92
2023-03-04T16:51:48.508Z,1.86
2023-03-04T16:54:29.965Z,1.82
2023-03-04T16:57:00.948Z,1.83
2023-03-04T16:59:29.706Z,1.79
2023-03-04T17:01:57.901Z,1.76
2023-03-04T17:04:27.248Z,1.72
2023-03-04T17:06:55.776Z,1.66
2023-03-04T17:09:25.272Z,1.61
2023-03-04T17:11:53.653Z,1.54
2023-03-04T17:14:23.039Z,1.48
2023-03-04T17:16:50.828Z,1.42
2023-03-04T17:19:18.672Z,1.37
2023-03-04T17:21:46.409Z,1.34
2023-03-04T17:24:14.123Z,1.27
2023-03-04T17:26:42.802Z,1.22
2023-03-04T17:29:11.122Z,1.17
2023-03-04T17:31:39.770Z,1.12
2023-03-04T17:34:08.565Z,1.07
2023-03-04T17:36:37.129Z,1.06
2023-03-04T17:39:06.715Z,1.01
2023-03-04T17:41:36.341Z,0.91
2023-03-04T17:44:05.970Z,0.80
2023-03-04T17:46:33.884Z,0.69
2023-03-04T17:49:02.370Z,0.58
2023-03-04T17:51:37.180Z,0.51
2023-03-04T17:54:09.140Z,0.44
2023-03-04T17:56:40.568Z,0.38
2023-03-04T17:59:14.889Z,0.35
2023-03-04T18:01:45.458Z,0.31
2023-03-04T18:04:15.016Z,0.31
2023-03-04T18:06:44.480Z,0.31
2023-03-04T18:09:12.910Z,0.29
2023-03-04T18:11:42.710Z,0.24
2023-03-04T18:14:12.901Z,0.20
2023-03-04T18:16:40.963Z,0.18
2023-03-04T18:19:09.658Z,0.18
2023-03-04T18:21:38.752Z,0.15
2023-03-04T18:24:09.573Z,0.11
2023-03-04T18:26:38.776Z,0.02
2023-03-04T18:29:06.881Z,-0.04
2023-03-04T18:31:36.825Z,-0.09
2023-03-04T18:34:06.762Z,-0.14
2023-03-04T18:36:34.785Z,-0.17
2023-03-04T18:39:05.625Z,-0.18
2023-03-04T18:41:34.150Z,-0.18
2023-03-04T18:44:06.034Z,-0.19
2023-03-04T18:46:49.299Z,-0.19
2023-03-04T18:49:20.254Z,-0.20
2023-03-04T18:51:48.124Z,-0.18
2023-03-04T18:54:16.465Z,-0.13
2023-03-04T18:56:59.676Z,-0.16
2023-03-04T18:59:55.917Z,-0.21
2023-03-04T19:02:41.163Z,-0.24
2023-03-04T19:05:18.870Z,-0.29
2023-03-04T19:07:47.578Z,-0.32
2023-03-04T19:10:17.613Z,-0.34
2023-03-04T19:12:46.006Z,-0.37
2023-03-04T19:15:14.768Z,-0.39
2023-03-04T19:17:45.412Z,-0.36
2023-03-04T19:20:16.359Z,-0.34
2023-03-04T19:22:44.729Z,-0.35
2023-03-04T19:25:14.317Z,-0.37
2023-03-04T19:27:42.199Z,-0.37
2023-03-04T19:30:12.121Z,-0.40
2023-03-04T19:32:41.051Z,-0.44
2023-03-04T19:35:09.110Z,-0.45
2023-03-04T19:37:38.421Z,-0.48
2023-03-04T19:40:08.434Z,-0.51
2023-03-04T19:42:37.127Z,-0.54
2023-03-04T19:45:10.240Z,-0.55
2023-03-04T19:47:40.049Z,-0.58
2023-03-04T19:50:11.809Z,-0.62
2023-03-04T19:52:41.489Z,-0.55
2023-03-04T19:55:13.015Z,-0.60
2023-03-04T19:57:47.034Z,-0.63
2023-03-04T20:00:15.479Z,-0.66
2023-03-04T20:02:45.732Z,-0.66
2023-03-04T20:05:14.189Z,-0.69
2023-03-04T20:07:43.876Z,-0.70
2023-03-04T20:10:15.883Z,-0.69
2023-03-04T20:12:43.697Z,-0.72
2023-03-04T20:15:12.210Z,-0.70
2023-03-04T20:17:41.661Z,-0.67
2023-03-04T20:20:12.667Z,-0.67
2023-03-04T20:22:40.524Z,-0.67
2023-03-04T20:25:09.004Z,-0.66
2023-03-04T20:27:40.251Z,-0.70
2023-03-04T20:30:09.549Z,-0.71
2023-03-04T20:32:39.446Z,-0.71
2023-03-04T20:35:14.122Z,-0.67
2023-03-04T20:37:42.869Z,-0.59
2023-03-04T20:40:13.276Z,-0.48
2023-03-04T20:42:42.578Z,-0.41
2023-03-04T20:45:11.394Z,-0.41
2023-03-04T20:47:39.732Z,-0.40
2023-03-04T20:50:08.749Z,-0.46
2023-03-04T20:52:37.131Z,-0.51
2023-03-04T20:55:05.338Z,-0.58
2023-03-04T20:57:33.308Z,-0.67
2023-03-04T21:00:02.343Z,-0.77
2023-03-04T21:02:30.809Z,-0.86
2023-03-04T21:04:59.126Z,-0.97
2023-03-04T21:07:28.325Z,-1.07
2023-03-04T21:09:57.714Z,-1.14
2023-03-04T21:12:27.154Z,-1.20
2023-03-04T21:14:55.272Z,-1.25
2023-03-04T21:17:24.523Z,-1.29
2023-03-04T21:19:52.791Z,-1.37
2023-03-04T21:22:21.292Z,-1.42
2023-03-04T21:24:49.586Z,-1.43
2023-03-04T21:27:18.492Z,-1.43
2023-03-04T21:29:46.385Z,-1.40
2023-03-04T21:32:24.900Z,-1.34
2023-03-04T21:34:55.844Z,-1.35
2023-03-04T21:37:25.473Z,-1.37
2023-03-04T21:39:55.134Z,-1.33
2023-03-04T21:42:23.298Z,-1.35
2023-03-04T21:44:51.947Z,-1.37
2023-03-04T21:47:21.903Z,-1.36
2023-03-04T21:49:51.147Z,-1.41
2023-03-04T21:52:22.342Z,-1.46
2023-03-04T21:54:52.469Z,-1.42
2023-03-04T21:57:20.270Z,-1.45
2023-03-04T21:59:49.332Z,-1.51
2023-03-04T22:02:21.423Z,-1.56
2023-03-04T22:04:51.736Z,-1.66
2023-03-04T22:07:21.702Z,-1.71
2023-03-04T22:09:50.632Z,-1.75
2023-03-04T22:12:19.640Z,-1.80
2023-03-04T22:14:47.930Z,-1.81
2023-03-04T22:17:17.694Z,-1.79
2023-03-04T22:19:45.645Z,-1.81
2023-03-04T22:22:14.188Z,-1.84
2023-03-04T22:24:42.398Z,-1.90
2023-03-04T22:27:10.153Z,-1.96
2023-03-04T22:29:38.097Z,-2.00
2023-03-04T22:32:06.240Z,-2.05
2023-03-04T22:34:34.324Z,-2.11
2023-03-04T22:37:02.250Z,-2.12
2023-03-04T22:39:30.393Z,-2.13
2023-03-04T22:41:58.393Z,-2.13
2023-03-04T22:44:26.524Z,-2.13
2023-03-04T22:46:55.241Z,-2.14
2023-03-04T22:49:23.327Z,-2.11
2023-03-04T22:51:51.092Z,-2.10
2023-03-04T22:54:20.813Z,-2.10
2023-03-04T22:56:48.780Z,-2.16
2023-03-04T22:59:18.313Z,-2.17
2023-03-04T23:01:46.139Z,-2.22
2023-03-04T23:04:13.974Z,-2.22
2023-03-04T23:06:42.436Z,-2.25
2023-03-04T23:09:10.663Z,-2.29
2023-03-04T23:11:39.509Z,-2.32
2023-03-04T23:14:12.560Z,-2.35
2023-03-04T23:16:45.146Z,-2.36
2023-03-04T23:19:17.625Z,-2.39
2023-03-04T23:21:46.697Z,-2.39
2023-03-04T23:24:14.688Z,-2.40
2023-03-04T23:26:45.318Z,-2.41
2023-03-04T23:29:17.185Z,-2.41
2023-03-04T23:31:44.909Z,-2.42
2023-03-04T23:34:13.843Z,-2.44
2023-03-04T23:36:42.805Z,-2.44
2023-03-04T23:39:13.275Z,-2.45
2023-03-04T23:41:41.632Z,-2.49
2023-03-04T23:44:12.528Z,-2.49
2023-03-04T23:46:43.056Z,-2.53
2023-03-04T23:49:14.659Z,-2.55
2023-03-04T23:51:44.337Z,-2.59
2023-03-04T23:54:15.699Z,-2.63
2023-03-04T23:56:44.054Z,-2.67
2023-03-04T23:59:12.335Z,-2.69
